createdAt,value
2023-05-19T00:01:33.092Z,14.88
2023-05-19T00:04:05.463Z,15.10
2023-05-19T00:06:33.709Z,15.23
2023-05-19T00:09:04.667Z,15.02
2023-05-19T00:11:33.849Z,13.77
2023-05-19T00:14:03.058Z,12.60
2023-05-19T00:16:31.958Z,12.14
2023-05-19T00:19:01.661Z,13.08
2023-05-19T00:21:31.457Z,13.96
2023-05-19T00:23:59.444Z,14.50
2023-05-19T00:26:28.213Z,14.82
2023-05-19T00:29:00.338Z,14.96
2023-05-19T00:31:28.614Z,15.13
2023-05-19T00:33:56.619Z,15.24
2023-05-19T00:36:24.821Z,15.09
2023-05-19T00:38:52.883Z,13.96
2023-05-19T00:41:21.241Z,12.85
2023-05-19T00:43:49.554Z,12.36
2023-05-19T00:46:19.073Z,13.20
2023-05-19T00:48:47.097Z,14.01
2023-05-19T00:51:17.351Z,14.55
2023-05-19T00:53:49.419Z,14.86
2023-05-19T00:56:18.928Z,15.01
2023-05-19T00:58:47.496Z,15.14
2023-05-19T01:01:17.299Z,15.25
2023-05-19T01:03:47.268Z,15.04
2023-05-19T01:06:15.728Z,13.82
2023-05-19T01:08:43.692Z,12.93
2023-05-19T01:11:11.646Z,13.67
2023-05-19T01:13:41.944Z,14.33
2023-05-19T01:16:10.338Z,14.77
2023-05-19T01:18:50.300Z,15.27
2023-05-19T01:22:07.066Z,15.06
2023-05-19T01:24:55.097Z,13.34
2023-05-19T01:27:51.217Z,12.65
2023-05-19T01:30:41.319Z,13.89
2023-05-19T01:33:14.450Z,14.89
2023-05-19T01:35:44.494Z,15.29
2023-05-19T01:38:16.615Z,15.45
2023-05-19T01:40:47.204Z,15.14
2023-05-19T01:43:19.508Z,13.80
2023-05-19T01:45:49.014Z,12.99
2023-05-19T01:48:18.537Z,13.90
2023-05-19T01:50:47.297Z,14.78
2023-05-19T01:53:17.291Z,15.30
2023-05-19T01:55:49.713Z,15.34
2023-05-19T01:58:47.129Z,14.07
2023-05-19T02:01:55.410Z,12.64
2023-05-19T02:04:44.118Z,12.39
2023-05-19T02:07:12.206Z,13.80
2023-05-19T02:09:49.065Z,14.47
2023-05-19T02:12:26.740Z,14.92
2023-05-19T02:15:09.787Z,15.21
2023-05-19T02:17:47.985Z,15.13
2023-05-19T02:20:16.559Z,13.71
2023-05-19T02:22:45.084Z,12.82
2023-05-19T02:25:14.638Z,13.53
2023-05-19T02:27:42.838Z,14.48
2023-05-19T02:30:11.086Z,15.10
2023-05-19T02:32:39.815Z,15.38
2023-05-19T02:35:08.235Z,15.15
2023-05-19T02:37:36.141Z,13.86
2023-05-19T02:40:04.630Z,12.93
2023-05-19T02:42:32.625Z,13.47
2023-05-19T02:45:01.154Z,14.17
2023-05-19T02:47:29.282Z,14.70
2023-05-19T02:49:57.217Z,15.06
2023-05-19T02:52:25.248Z,15.10
2023-05-19T02:54:53.263Z,15.16
2023-05-19T02:57:22.238Z,15.24
2023-05-19T02:59:50.131Z,15.07
2023-05-19T03:02:18.181Z,13.91
2023-05-19T03:04:46.184Z,12.77
2023-05-19T03:07:14.139Z,12.30
2023-05-19T03:09:42.142Z,13.36
2023-05-19T03:12:10.178Z,14.30
2023-05-19T03:14:38.763Z,14.68
2023-05-19T03:17:10.864Z,14.88
2023-05-19T03:19:38.918Z,15.12
2023-05-19T03:22:07.131Z,15.54
2023-05-19T03:24:36.946Z,15.60
2023-05-19T03:27:07.703Z,14.40
2023-05-19T03:29:35.633Z,13.20
2023-05-19T03:32:04.318Z,12.73
2023-05-19T03:34:32.856Z,13.54
2023-05-19T03:37:01.048Z,14.33
2023-05-19T03:39:29.103Z,14.82
2023-05-19T03:41:57.176Z,15.09
2023-05-19T03:44:25.176Z,15.36
2023-05-19T03:46:53.693Z,15.63
2023-05-19T03:49:47.669Z,15.47
2023-05-19T03:52:15.814Z,14.24
2023-05-19T03:54:57.982Z,13.51
2023-05-19T03:57:27.144Z,14.37
2023-05-19T03:59:55.339Z,15.17
2023-05-19T04:02:23.432Z,15.54
2023-05-19T04:04:52.811Z,15.86
2023-05-19T04:07:20.945Z,15.84
2023-05-19T04:09:49.850Z,14.77
2023-05-19T04:12:17.842Z,13.69
2023-05-19T04:14:46.666Z,13.25
2023-05-19T04:17:14.696Z,14.15
2023-05-19T04:19:42.640Z,15.02
2023-05-19T04:22:10.612Z,15.53
2023-05-19T04:24:38.699Z,15.88
2023-05-19T04:27:12.043Z,16.04
2023-05-19T04:29:41.561Z,15.92
2023-05-19T04:32:10.859Z,14.78
2023-05-19T04:34:40.483Z,13.68
2023-05-19T04:37:10.326Z,13.29
2023-05-19T04:39:40.412Z,14.41
2023-05-19T04:42:09.188Z,15.46
2023-05-19T04:44:40.348Z,15.93
2023-05-19T04:47:09.109Z,16.16
2023-05-19T04:49:40.227Z,16.15
2023-05-19T04:52:12.641Z,15.03
2023-05-19T04:54:42.018Z,13.89
2023-05-19T04:57:11.584Z,13.44
2023-05-19T04:59:39.689Z,14.50
2023-05-19T05:02:08.897Z,15.49
2023-05-19T05:04:42.697Z,15.95
2023-05-19T05:07:11.055Z,16.35
2023-05-19T05:09:39.522Z,16.26
2023-05-19T05:12:09.210Z,15.03
2023-05-19T05:14:40.388Z,13.87
2023-05-19T05:17:10.130Z,13.50
2023-05-19T05:19:38.412Z,14.68
2023-05-19T05:22:07.486Z,15.38
2023-05-19T05:24:37.815Z,15.71
2023-05-19T05:27:10.485Z,15.96
2023-05-19T05:29:41.757Z,16.18
2023-05-19T05:32:11.758Z,16.31
2023-05-19T05:34:42.238Z,16.30
2023-05-19T05:37:12.093Z,15.19
2023-05-19T05:39:42.652Z,14.04
2023-05-19T05:42:11.330Z,13.57
2023-05-19T05:44:40.545Z,14.49
2023-05-19T05:47:09.468Z,15.33
2023-05-19T05:49:38.406Z,16.05
2023-05-19T05:52:12.195Z,16.49
2023-05-19T05:54:44.745Z,16.44
2023-05-19T05:57:15.346Z,15.26
2023-05-19T05:59:45.633Z,14.39
2023-05-19T06:02:13.816Z,15.23
2023-05-19T06:04:41.906Z,16.05
2023-05-19T06:07:10.159Z,16.43
2023-05-19T06:09:39.126Z,16.53
2023-05-19T06:12:08.191Z,16.26
2023-05-19T06:14:40.611Z,15.10
2023-05-19T06:17:37.476Z,14.48
2023-05-19T06:20:06.654Z,15.72
2023-05-19T06:22:35.768Z,16.59
2023-05-19T06:25:05.783Z,17.00
2023-05-19T06:27:35.822Z,16.84
2023-05-19T06:30:04.383Z,15.56
2023-05-19T06:32:35.928Z,14.33
2023-05-19T06:35:04.937Z,13.86
2023-05-19T06:37:33.366Z,14.90
2023-05-19T06:40:01.524Z,15.90
2023-05-19T06:42:29.496Z,16.46
2023-05-19T06:44:59.954Z,16.81
2023-05-19T06:47:29.438Z,16.72
2023-05-19T06:49:58.099Z,15.55
2023-05-19T06:52:28.280Z,14.40
2023-05-19T06:54:56.384Z,13.95
2023-05-19T06:57:24.341Z,14.92
2023-05-19T06:59:52.488Z,15.83
2023-05-19T07:02:20.710Z,16.48
2023-05-19T07:04:49.054Z,16.79
2023-05-19T07:07:17.745Z,16.93
2023-05-19T07:09:46.317Z,16.84
2023-05-19T07:12:14.462Z,15.72
2023-05-19T07:14:42.501Z,14.65
2023-05-19T07:17:11.342Z,14.25
2023-05-19T07:19:41.612Z,15.29
2023-05-19T07:22:09.852Z,16.24
2023-05-19T07:24:38.359Z,16.77
2023-05-19T07:27:06.298Z,17.16
2023-05-19T07:29:34.291Z,17.19
2023-05-19T07:32:02.321Z,16.12
2023-05-19T07:34:31.050Z,15.12
2023-05-19T07:36:59.149Z,14.76
2023-05-19T07:39:29.812Z,15.83
2023-05-19T07:41:58.100Z,16.89
2023-05-19T07:44:27.288Z,17.33
2023-05-19T07:46:55.401Z,17.31
2023-05-19T07:49:23.464Z,16.27
2023-05-19T07:51:51.436Z,15.29
2023-05-19T07:54:20.510Z,14.91
2023-05-19T07:56:48.534Z,15.90
2023-05-19T07:59:16.780Z,16.79
2023-05-19T08:01:45.143Z,17.31
2023-05-19T08:04:13.700Z,17.34
2023-05-19T08:06:42.922Z,16.33
2023-05-19T08:09:11.174Z,15.31
2023-05-19T08:11:39.513Z,14.95
2023-05-19T08:14:07.460Z,15.98
2023-05-19T08:16:35.583Z,16.99
2023-05-19T08:19:05.014Z,17.69
2023-05-19T08:21:36.833Z,17.86
2023-05-19T08:24:04.976Z,16.77
2023-05-19T08:26:34.139Z,15.76
2023-05-19T08:29:03.118Z,15.40
2023-05-19T08:31:31.179Z,16.48
2023-05-19T08:33:59.493Z,17.59
2023-05-19T08:36:27.773Z,17.99
2023-05-19T08:38:55.959Z,17.01
2023-05-19T08:41:23.982Z,16.00
2023-05-19T08:43:52.070Z,15.66
2023-05-19T08:46:22.148Z,16.85
2023-05-19T08:48:54.375Z,17.90
2023-05-19T08:51:51.139Z,18.02
2023-05-19T08:54:20.905Z,16.71
2023-05-19T08:56:49.228Z,15.80
2023-05-19T08:59:18.446Z,15.17
2023-05-19T09:01:46.755Z,15.13
2023-05-19T09:04:17.079Z,16.40
2023-05-19T09:06:45.577Z,17.59
2023-05-19T09:09:13.612Z,17.93
2023-05-19T09:11:45.528Z,17.05
2023-05-19T09:14:13.583Z,16.07
2023-05-19T09:16:42.143Z,15.75
2023-05-19T09:19:17.670Z,16.89
2023-05-19T09:21:45.915Z,17.89
2023-05-19T09:24:13.898Z,18.10
2023-05-19T09:26:43.044Z,17.06
2023-05-19T09:29:16.041Z,16.08
2023-05-19T09:31:54.777Z,15.41
2023-05-19T09:34:25.100Z,15.37
2023-05-19T09:36:54.183Z,16.72
2023-05-19T09:39:26.569Z,17.86
2023-05-19T09:41:56.317Z,18.21
2023-05-19T09:44:34.698Z,17.29
2023-05-19T09:47:03.588Z,16.30
2023-05-19T09:49:32.977Z,15.65
2023-05-19T09:52:04.225Z,15.53
2023-05-19T09:54:34.149Z,16.75
2023-05-19T09:57:05.177Z,17.88
2023-05-19T09:59:34.878Z,18.19
2023-05-19T10:02:03.310Z,17.23
2023-05-19T10:04:31.924Z,16.31
2023-05-19T10:07:05.728Z,15.62
2023-05-19T10:09:36.576Z,15.53
2023-05-19T10:12:05.775Z,17.05
2023-05-19T10:14:33.732Z,18.30
2023-05-19T10:17:01.810Z,18.14
2023-05-19T10:19:30.168Z,17.08
2023-05-19T10:21:58.352Z,16.30
2023-05-19T10:24:27.619Z,15.77
2023-05-19T10:27:01.697Z,16.41
2023-05-19T10:29:34.408Z,17.93
2023-05-19T10:32:11.812Z,18.55
2023-05-19T10:34:57.450Z,17.75
2023-05-19T10:37:45.696Z,16.83
2023-05-19T10:40:21.854Z,16.15
2023-05-19T10:43:14.655Z,16.07
2023-05-19T10:45:53.080Z,17.43
2023-05-19T10:48:23.106Z,18.44
2023-05-19T10:50:54.795Z,17.90
2023-05-19T10:53:31.240Z,16.96
2023-05-19T10:56:04.700Z,16.30
2023-05-19T10:58:44.928Z,15.82
2023-05-19T11:01:14.740Z,15.94
2023-05-19T11:03:49.797Z,17.49
2023-05-19T11:06:21.345Z,18.82
2023-05-19T11:09:05.854Z,19.27
2023-05-19T11:11:51.250Z,18.42
2023-05-19T11:14:23.278Z,17.57
2023-05-19T11:17:01.306Z,17.00
2023-05-19T11:19:32.120Z,16.48
2023-05-19T11:22:11.482Z,16.04
2023-05-19T11:24:42.107Z,16.13
2023-05-19T11:27:19.194Z,17.51
2023-05-19T11:29:48.611Z,18.81
2023-05-19T11:32:17.429Z,19.25
2023-05-19T11:34:46.066Z,18.45
2023-05-19T11:37:14.226Z,17.59
2023-05-19T11:39:42.452Z,17.03
2023-05-19T11:42:13.437Z,16.56
2023-05-19T11:44:41.580Z,16.22
2023-05-19T11:47:09.803Z,16.29
2023-05-19T11:49:38.000Z,17.77
2023-05-19T11:52:06.659Z,19.12
2023-05-19T11:54:36.885Z,19.69
2023-05-19T11:57:05.126Z,18.83
2023-05-19T11:59:37.875Z,18.00
2023-05-19T12:02:17.110Z,17.37
2023-05-19T12:04:45.694Z,16.92
2023-05-19T12:07:17.734Z,16.54
2023-05-19T12:09:47.546Z,16.46
2023-05-19T12:12:20.685Z,17.68
2023-05-19T12:14:53.101Z,19.00
2023-05-19T12:17:24.047Z,18.85
2023-05-19T12:19:52.701Z,17.82
2023-05-19T12:22:30.552Z,17.07
2023-05-19T12:24:58.701Z,16.55
2023-05-19T12:27:28.905Z,16.15
2023-05-19T12:29:57.560Z,16.17
2023-05-19T12:32:31.333Z,17.56
2023-05-19T12:35:00.528Z,18.82
2023-05-19T12:37:30.197Z,19.21
2023-05-19T12:39:58.623Z,18.34
2023-05-19T12:42:31.579Z,17.54
2023-05-19T12:45:03.076Z,16.96
2023-05-19T12:47:33.757Z,16.49
2023-05-19T12:50:09.687Z,16.15
2023-05-19T12:52:44.236Z,16.34
2023-05-19T12:55:14.405Z,17.80
2023-05-19T12:57:44.502Z,18.96
2023-05-19T13:00:17.964Z,19.10
2023-05-19T13:03:05.410Z,18.10
2023-05-19T13:05:38.224Z,17.22
2023-05-19T13:08:06.873Z,16.70
2023-05-19T13:10:36.702Z,16.33
2023-05-19T13:13:06.161Z,16.41
2023-05-19T13:15:38.013Z,17.81
2023-05-19T13:18:09.060Z,18.98
2023-05-19T13:20:38.684Z,19.33
2023-05-19T13:23:06.923Z,18.47
2023-05-19T13:25:35.343Z,17.62
2023-05-19T13:28:05.456Z,17.05
2023-05-19T13:30:39.509Z,16.71
2023-05-19T13:33:07.768Z,16.77
2023-05-19T13:35:39.216Z,18.04
2023-05-19T13:38:10.444Z,19.08
2023-05-19T13:40:40.286Z,19.44
2023-05-19T13:43:09.073Z,18.58
2023-05-19T13:45:37.501Z,17.71
2023-05-19T13:48:07.834Z,17.10
2023-05-19T13:50:36.722Z,16.66
2023-05-19T13:53:05.380Z,16.64
2023-05-19T13:55:33.415Z,17.80
2023-05-19T13:58:01.492Z,18.89
2023-05-19T14:00:31.431Z,19.30
2023-05-19T14:03:00.632Z,18.44
2023-05-19T14:05:29.558Z,17.49
2023-05-19T14:07:58.233Z,16.79
2023-05-19T14:10:26.206Z,16.52
2023-05-19T14:15:38.187Z,18.49
2023-05-19T14:18:08.755Z,18.79
2023-05-19T14:20:36.829Z,17.91
2023-05-19T14:23:05.052Z,17.07
2023-05-19T14:25:33.202Z,16.44
2023-05-19T14:28:08.145Z,16.31
2023-05-19T14:30:36.890Z,17.57
2023-05-19T14:33:05.345Z,18.52
2023-05-19T14:35:33.998Z,18.81
2023-05-19T14:38:02.225Z,17.88
2023-05-19T14:40:31.928Z,16.93
2023-05-19T14:43:00.731Z,16.55
2023-05-19T14:45:28.935Z,17.55
2023-05-19T14:47:56.930Z,18.37
2023-05-19T14:50:27.308Z,18.55
2023-05-19T14:52:57.912Z,17.65
2023-05-19T14:55:25.974Z,16.79
2023-05-19T14:57:54.072Z,16.43
2023-05-19T15:00:22.436Z,17.38
2023-05-19T15:02:50.668Z,18.29
2023-05-19T15:05:18.859Z,18.79
2023-05-19T15:07:46.933Z,18.75
2023-05-19T15:10:15.037Z,17.79
2023-05-19T15:12:43.222Z,16.85
2023-05-19T15:15:11.529Z,16.47
2023-05-19T15:17:40.375Z,17.40
2023-05-19T15:20:08.855Z,18.30
2023-05-19T15:22:38.070Z,18.44
2023-05-19T15:25:07.088Z,17.53
2023-05-19T15:27:36.571Z,16.62
2023-05-19T15:30:05.619Z,16.22
2023-05-19T15:32:34.131Z,17.07
2023-05-19T15:35:02.237Z,17.96
2023-05-19T15:37:30.240Z,18.47
2023-05-19T15:39:58.283Z,18.57
2023-05-19T15:42:26.420Z,17.60
2023-05-19T15:44:54.643Z,16.63
2023-05-19T15:47:22.644Z,16.18
2023-05-19T15:49:50.597Z,16.91
2023-05-19T15:52:18.694Z,17.69
2023-05-19T15:54:48.886Z,18.31
2023-05-19T15:57:16.921Z,18.41
2023-05-19T15:59:45.054Z,17.44
2023-05-19T16:02:13.223Z,16.40
2023-05-19T16:04:41.403Z,15.90
2023-05-19T16:07:09.375Z,16.68
2023-05-19T16:09:37.440Z,17.52
2023-05-19T16:12:05.729Z,18.03
2023-05-19T16:14:36.731Z,18.30
2023-05-19T16:17:11.050Z,18.51
2023-05-19T16:19:38.966Z,18.20
2023-05-19T16:22:06.951Z,17.13
2023-05-19T16:24:34.927Z,16.12
2023-05-19T16:27:03.018Z,15.77
2023-05-19T16:29:31.008Z,16.97
2023-05-19T16:31:58.997Z,17.93
2023-05-19T16:34:28.583Z,18.38
2023-05-19T16:36:57.283Z,18.23
2023-05-19T16:39:25.197Z,17.10
2023-05-19T16:41:53.293Z,16.05
2023-05-19T16:44:21.292Z,15.56
2023-05-19T16:46:49.282Z,16.41
2023-05-19T16:49:17.237Z,17.20
2023-05-19T16:51:46.811Z,17.76
2023-05-19T16:54:16.239Z,18.15
2023-05-19T16:56:44.248Z,18.08
2023-05-19T16:59:12.268Z,16.93
2023-05-19T17:01:40.354Z,15.81
2023-05-19T17:04:08.562Z,15.36
2023-05-19T17:06:37.930Z,16.26
2023-05-19T17:09:06.213Z,17.21
2023-05-19T17:11:34.152Z,17.80
2023-05-19T17:14:04.347Z,18.03
2023-05-19T17:16:32.300Z,17.74
2023-05-19T17:19:01.098Z,16.54
2023-05-19T17:21:29.222Z,15.69
2023-05-19T17:24:03.486Z,16.49
2023-05-19T17:26:31.475Z,17.27
2023-05-19T17:28:59.402Z,17.72
2023-05-19T17:31:27.693Z,18.00
2023-05-19T17:33:55.914Z,18.22
2023-05-19T17:36:23.866Z,18.04
2023-05-19T17:38:52.464Z,16.88
2023-05-19T17:41:21.486Z,15.78
2023-05-19T17:43:53.287Z,15.32
2023-05-19T17:46:31.103Z,16.33
2023-05-19T17:48:59.842Z,17.27
2023-05-19T17:51:28.482Z,17.74
2023-05-19T17:53:56.666Z,18.01
2023-05-19T17:56:25.911Z,18.26
2023-05-19T17:58:54.212Z,18.11
2023-05-19T18:01:24.285Z,16.93
2023-05-19T18:03:52.839Z,16.12
2023-05-19T18:06:24.386Z,16.96
2023-05-19T18:08:57.315Z,17.63
2023-05-19T18:11:26.629Z,17.80
2023-05-19T18:13:54.861Z,17.83
2023-05-19T18:16:23.037Z,17.99
2023-05-19T18:18:51.314Z,17.90
2023-05-19T18:21:19.380Z,16.69
2023-05-19T18:23:48.140Z,15.82
2023-05-19T18:26:16.303Z,16.56
2023-05-19T18:28:44.380Z,17.37
2023-05-19T18:31:19.175Z,17.71
2023-05-19T18:33:47.653Z,17.85
2023-05-19T18:36:16.824Z,17.83
2023-05-19T18:38:45.151Z,17.71
2023-05-19T18:41:14.689Z,17.90
2023-05-19T18:43:42.726Z,17.87
2023-05-19T18:46:10.926Z,16.77
2023-05-19T18:48:39.849Z,15.61
2023-05-19T18:51:08.145Z,15.11
2023-05-19T18:53:36.793Z,15.97
2023-05-19T18:56:05.054Z,16.78
2023-05-19T18:58:33.183Z,17.07
2023-05-19T19:01:01.843Z,17.20
2023-05-19T19:03:30.368Z,17.30
2023-05-19T19:05:59.875Z,17.37
2023-05-19T19:08:27.977Z,17.42
2023-05-19T19:11:00.313Z,17.53
2023-05-19T19:13:28.656Z,17.66
2023-05-19T19:15:57.216Z,17.71
2023-05-19T19:18:26.389Z,17.74
2023-05-19T19:20:56.883Z,17.75
2023-05-19T19:23:25.180Z,17.74
2023-05-19T19:25:54.115Z,17.79
2023-05-19T19:28:23.697Z,17.95
2023-05-19T19:30:52.171Z,17.81
2023-05-19T19:33:21.672Z,16.68
2023-05-19T19:35:49.826Z,15.77
2023-05-19T19:38:17.930Z,16.27
2023-05-19T19:40:46.335Z,16.83
2023-05-19T19:43:14.457Z,17.15
2023-05-19T19:45:42.796Z,17.44
2023-05-19T19:48:12.464Z,17.55
2023-05-19T19:50:41.187Z,17.63
2023-05-19T19:53:09.457Z,17.61
2023-05-19T19:55:37.675Z,17.60
2023-05-19T19:58:05.648Z,17.61
2023-05-19T20:00:34.367Z,17.62
2023-05-19T20:03:05.786Z,17.62
2023-05-19T20:05:38.224Z,17.71
2023-05-19T20:08:06.293Z,17.67
2023-05-19T20:10:34.367Z,17.55
2023-05-19T20:13:03.137Z,17.50
2023-05-19T20:15:31.804Z,17.47
2023-05-19T20:17:59.823Z,17.44
2023-05-19T20:20:27.812Z,17.51
2023-05-19T20:22:56.051Z,17.50
2023-05-19T20:25:24.047Z,17.46
2023-05-19T20:27:52.005Z,17.38
2023-05-19T20:30:19.915Z,17.30
2023-05-19T20:32:47.952Z,17.34
2023-05-19T20:35:16.419Z,17.22
2023-05-19T20:37:44.451Z,17.15
2023-05-19T20:40:12.962Z,17.22
2023-05-19T20:42:41.253Z,17.34
2023-05-19T20:45:09.756Z,17.30
2023-05-19T20:47:37.864Z,17.33
2023-05-19T20:50:06.340Z,17.59
2023-05-19T20:52:34.333Z,17.83
2023-05-19T20:55:02.995Z,17.84
2023-05-19T20:57:30.989Z,17.69
2023-05-19T20:59:59.370Z,17.85
2023-05-19T21:02:27.679Z,18.21
2023-05-19T21:04:56.173Z,17.74
2023-05-19T21:07:25.028Z,16.31
2023-05-19T21:09:54.439Z,15.49
2023-05-19T21:12:28.565Z,16.19
2023-05-19T21:14:56.557Z,16.96
2023-05-19T21:17:24.567Z,17.40
2023-05-19T21:19:57.933Z,17.51
2023-05-19T21:22:26.804Z,17.47
2023-05-19T21:24:55.367Z,17.41
2023-05-19T21:27:23.523Z,17.39
2023-05-19T21:29:55.912Z,17.43
2023-05-19T21:32:23.931Z,17.40
2023-05-19T21:34:51.931Z,17.44
2023-05-19T21:37:21.213Z,17.44
2023-05-19T21:39:49.249Z,17.48
2023-05-19T21:42:17.428Z,17.43
2023-05-19T21:44:45.401Z,17.51
2023-05-19T21:47:13.412Z,17.50
2023-05-19T21:49:41.365Z,17.57
2023-05-19T21:52:09.633Z,17.66
2023-05-19T21:54:37.576Z,17.77
2023-05-19T21:57:05.783Z,17.56
2023-05-19T21:59:33.792Z,16.29
2023-05-19T22:02:01.786Z,15.37
2023-05-19T22:04:31.605Z,16.01
2023-05-19T22:06:59.598Z,16.75
2023-05-19T22:09:27.567Z,17.13
2023-05-19T22:11:55.615Z,17.55
2023-05-19T22:14:23.606Z,17.58
2023-05-19T22:16:51.800Z,16.66
2023-05-19T22:19:20.077Z,15.61
2023-05-19T22:21:48.350Z,16.07
2023-05-19T22:24:18.653Z,16.71
2023-05-19T22:26:47.443Z,16.99
2023-05-19T22:29:18.580Z,17.20
2023-05-19T22:31:46.511Z,17.48
2023-05-19T22:34:15.466Z,17.39
2023-05-19T22:36:46.054Z,17.47
2023-05-19T22:39:14.046Z,17.61
2023-05-19T22:41:42.139Z,17.40
2023-05-19T22:44:11.509Z,16.13
2023-05-19T22:46:39.426Z,15.19
2023-05-19T22:49:07.346Z,15.81
2023-05-19T22:51:35.715Z,16.56
2023-05-19T22:54:03.713Z,16.96
2023-05-19T22:56:31.684Z,17.18
2023-05-19T22:58:59.757Z,17.47
2023-05-19T23:01:27.874Z,17.48
2023-05-19T23:03:55.968Z,17.42
2023-05-19T23:06:24.288Z,17.45
2023-05-19T23:09:00.559Z,17.63
2023-05-19T23:11:29.605Z,17.73
2023-05-19T23:13:57.565Z,16.50
2023-05-19T23:16:25.470Z,15.47
2023-05-19T23:18:53.411Z,16.06
2023-05-19T23:21:21.392Z,16.76
2023-05-19T23:23:49.928Z,17.11
2023-05-19T23:26:18.175Z,17.34
2023-05-19T23:28:46.149Z,17.53
2023-05-19T23:31:14.125Z,17.60
2023-05-19T23:33:42.110Z,17.65
2023-05-19T23:36:10.988Z,17.73
2023-05-19T23:38:39.029Z,17.84
2023-05-19T23:41:07.093Z,17.85
2023-05-19T23:43:35.080Z,17.89
2023-05-19T23:46:03.045Z,17.61
2023-05-19T23:48:31.538Z,16.33
2023-05-19T23:50:59.511Z,15.50
2023-05-19T23:53:27.469Z,16.26
2023-05-19T23:55:56.539Z,17.07
2023-05-19T23:58:26.536Z,17.51
